sensor_id;sensor_type;location;lat;lon;timestamp;temperature;humidity
16404;DHT22;8311;50.158;8.642;2022-08-20T00:02:41;26.60;45.20
16404;DHT22;8311;50.158;8.642;2022-08-20T00:05:36;26.60;45.20
16404;DHT22;8311;50.158;8.642;2022-08-20T00:08:31;26.60;45.20
16404;DHT22;8311;50.158;8.642;2022-08-20T00:11:25;26.60;45.30
16404;DHT22;8311;50.158;8.642;2022-08-20T00:14:20;26.60;45.30
16404;DHT22;8311;50.158;8.642;2022-08-20T00:17:12;26.60;45.30
16404;DHT22;8311;50.158;8.642;2022-08-20T00:20:09;26.60;45.20
16404;DHT22;8311;50.158;8.642;2022-08-20T00:23:03;26.70;45.40
16404;DHT22;8311;50.158;8.642;2022-08-20T00:26:02;26.70;45.50
16404;DHT22;8311;50.158;8.642;2022-08-20T00:28:55;26.70;45.50
16404;DHT22;8311;50.158;8.642;2022-08-20T00:31:49;26.70;45.50
16404;DHT22;8311;50.158;8.642;2022-08-20T00:34:43;26.60;45.50
16404;DHT22;8311;50.158;8.642;2022-08-20T00:37:36;26.60;45.50
16404;DHT22;8311;50.158;8.642;2022-08-20T00:40:32;26.70;45.60
16404;DHT22;8311;50.158;8.642;2022-08-20T00:43:33;26.70;45.60
16404;DHT22;8311;50.158;8.642;2022-08-20T00:46:27;26.70;45.60
16404;DHT22;8311;50.158;8.642;2022-08-20T00:49:25;26.70;45.60
16404;DHT22;8311;50.158;8.642;2022-08-20T00:52:19;26.70;45.60
16404;DHT22;8311;50.158;8.642;2022-08-20T00:55:13;26.70;45.80
16404;DHT22;8311;50.158;8.642;2022-08-20T00:58:08;26.70;45.70
16404;DHT22;8311;50.158;8.642;2022-08-20T01:01:02;26.70;45.80
16404;DHT22;8311;50.158;8.642;2022-08-20T01:03:55;26.70;45.80
16404;DHT22;8311;50.158;8.642;2022-08-20T01:06:49;26.70;45.90
16404;DHT22;8311;50.158;8.642;2022-08-20T01:09:42;26.70;45.90
16404;DHT22;8311;50.158;8.642;2022-08-20T01:12:50;26.70;45.90
16404;DHT22;8311;50.158;8.642;2022-08-20T01:15:53;26.70;45.90
16404;DHT22;8311;50.158;8.642;2022-08-20T01:18:50;26.70;46.00
16404;DHT22;8311;50.158;8.642;2022-08-20T01:21:44;26.70;46.00
16404;DHT22;8311;50.158;8.642;2022-08-20T01:24:43;26.70;46.10
16404;DHT22;8311;50.158;8.642;2022-08-20T01:27:38;26.70;46.10
16404;DHT22;8311;50.158;8.642;2022-08-20T01:30:34;26.70;46.10
16404;DHT22;8311;50.158;8.642;2022-08-20T01:33:27;26.70;46.20
16404;DHT22;8311;50.158;8.642;2022-08-20T01:36:24;26.70;46.20
16404;DHT22;8311;50.158;8.642;2022-08-20T01:39:20;26.70;46.20
16404;DHT22;8311;50.158;8.642;2022-08-20T01:42:17;26.70;46.20
16404;DHT22;8311;50.158;8.642;2022-08-20T01:45:13;26.70;46.20
16404;DHT22;8311;50.158;8.642;2022-08-20T01:48:08;26.70;46.20
16404;DHT22;8311;50.158;8.642;2022-08-20T01:51:07;26.70;46.20
16404;DHT22;8311;50.158;8.642;2022-08-20T01:54:01;26.70;46.20
16404;DHT22;8311;50.158;8.642;2022-08-20T01:56:56;26.70;46.20
16404;DHT22;8311;50.158;8.642;2022-08-20T01:59:52;26.70;46.30
16404;DHT22;8311;50.158;8.642;2022-08-20T02:02:47;26.70;46.30
16404;DHT22;8311;50.158;8.642;2022-08-20T02:05:41;26.70;46.30
16404;DHT22;8311;50.158;8.642;2022-08-20T02:08:34;26.70;46.30
16404;DHT22;8311;50.158;8.642;2022-08-20T02:11:29;26.70;46.30
16404;DHT22;8311;50.158;8.642;2022-08-20T02:14:22;26.70;46.40
16404;DHT22;8311;50.158;8.642;2022-08-20T02:17:16;26.70;47.00
16404;DHT22;8311;50.158;8.642;2022-08-20T02:20:16;26.70;46.40
16404;DHT22;8311;50.158;8.642;2022-08-20T02:23:10;26.70;46.50
16404;DHT22;8311;50.158;8.642;2022-08-20T02:26:04;26.70;46.40
16404;DHT22;8311;50.158;8.642;2022-08-20T02:28:58;26.70;46.40
16404;DHT22;8311;50.158;8.642;2022-08-20T02:31:52;26.70;46.50
16404;DHT22;8311;50.158;8.642;2022-08-20T02:35:08;26.70;46.50
16404;DHT22;8311;50.158;8.642;2022-08-20T02:38:04;26.70;46.50
16404;DHT22;8311;50.158;8.642;2022-08-20T02:40:57;26.70;46.50
16404;DHT22;8311;50.158;8.642;2022-08-20T02:43:50;26.70;46.60
16404;DHT22;8311;50.158;8.642;2022-08-20T02:46:43;26.70;46.60
16404;DHT22;8311;50.158;8.642;2022-08-20T02:49:37;26.70;46.60
16404;DHT22;8311;50.158;8.642;2022-08-20T02:52:30;26.70;46.60
16404;DHT22;8311;50.158;8.642;2022-08-20T02:55:24;26.70;46.70
16404;DHT22;8311;50.158;8.642;2022-08-20T02:58:19;26.70;46.70
16404;DHT22;8311;50.158;8.642;2022-08-20T03:01:15;26.70;47.30
16404;DHT22;8311;50.158;8.642;2022-08-20T03:04:09;26.70;46.70
16404;DHT22;8311;50.158;8.642;2022-08-20T03:07:03;26.70;46.70
16404;DHT22;8311;50.158;8.642;2022-08-20T03:09:57;26.70;46.80
16404;DHT22;8311;50.158;8.642;2022-08-20T03:12:51;26.70;47.40
16404;DHT22;8311;50.158;8.642;2022-08-20T03:15:47;26.70;46.70
16404;DHT22;8311;50.158;8.642;2022-08-20T03:18:46;26.70;46.80
16404;DHT22;8311;50.158;8.642;2022-08-20T03:21:43;26.70;46.80
16404;DHT22;8311;50.158;8.642;2022-08-20T03:24:36;26.70;46.70
16404;DHT22;8311;50.158;8.642;2022-08-20T03:27:30;26.70;46.90
16404;DHT22;8311;50.158;8.642;2022-08-20T03:30:28;26.70;46.90
16404;DHT22;8311;50.158;8.642;2022-08-20T03:33:22;26.70;47.00
16404;DHT22;8311;50.158;8.642;2022-08-20T03:36:16;26.70;46.90
16404;DHT22;8311;50.158;8.642;2022-08-20T03:39:17;26.70;47.00
16404;DHT22;8311;50.158;8.642;2022-08-20T03:42:10;26.70;47.00
16404;DHT22;8311;50.158;8.642;2022-08-20T03:45:04;26.70;47.00
16404;DHT22;8311;50.158;8.642;2022-08-20T03:47:59;26.70;47.00
16404;DHT22;8311;50.158;8.642;2022-08-20T03:50:53;26.70;47.10
16404;DHT22;8311;50.158;8.642;2022-08-20T03:53:46;26.70;47.10
16404;DHT22;8311;50.158;8.642;2022-08-20T03:56:40;26.70;47.00
16404;DHT22;8311;50.158;8.642;2022-08-20T03:59:33;26.70;47.10
16404;DHT22;8311;50.158;8.642;2022-08-20T04:02:26;26.70;47.10
16404;DHT22;8311;50.158;8.642;2022-08-20T04:05:20;26.70;47.20
16404;DHT22;8311;50.158;8.642;2022-08-20T04:08:18;26.70;47.20
16404;DHT22;8311;50.158;8.642;2022-08-20T04:11:12;26.70;47.20
16404;DHT22;8311;50.158;8.642;2022-08-20T04:14:04;26.70;47.20
16404;DHT22;8311;50.158;8.642;2022-08-20T04:16:58;26.70;47.30
16404;DHT22;8311;50.158;8.642;2022-08-20T04:19:56;26.70;47.30
16404;DHT22;8311;50.158;8.642;2022-08-20T04:22:51;26.70;47.30
16404;DHT22;8311;50.158;8.642;2022-08-20T04:25:50;26.70;47.40
16404;DHT22;8311;50.158;8.642;2022-08-20T04:28:47;26.70;47.30
16404;DHT22;8311;50.158;8.642;2022-08-20T04:31:41;26.70;47.30
16404;DHT22;8311;50.158;8.642;2022-08-20T04:34:34;26.70;47.40
16404;DHT22;8311;50.158;8.642;2022-08-20T04:37:28;26.70;47.40
16404;DHT22;8311;50.158;8.642;2022-08-20T04:40:23;26.70;47.40
16404;DHT22;8311;50.158;8.642;2022-08-20T04:43:35;26.70;47.40
16404;DHT22;8311;50.158;8.642;2022-08-20T04:46:29;26.70;47.40
16404;DHT22;8311;50.158;8.642;2022-08-20T04:49:23;26.70;47.50
16404;DHT22;8311;50.158;8.642;2022-08-20T04:52:17;26.70;47.40
16404;DHT22;8311;50.158;8.642;2022-08-20T04:55:10;26.70;47.50
16404;DHT22;8311;50.158;8.642;2022-08-20T04:58:14;26.70;47.60
16404;DHT22;8311;50.158;8.642;2022-08-20T05:01:09;26.70;47.60
16404;DHT22;8311;50.158;8.642;2022-08-20T05:04:03;26.70;47.60
16404;DHT22;8311;50.158;8.642;2022-08-20T05:06:56;26.70;47.60
16404;DHT22;8311;50.158;8.642;2022-08-20T05:09:49;26.70;47.60
16404;DHT22;8311;50.158;8.642;2022-08-20T05:12:42;26.70;47.60
16404;DHT22;8311;50.158;8.642;2022-08-20T05:15:49;26.70;47.60
16404;DHT22;8311;50.158;8.642;2022-08-20T05:18:42;26.70;47.70
16404;DHT22;8311;50.158;8.642;2022-08-20T05:21:43;26.70;47.70
16404;DHT22;8311;50.158;8.642;2022-08-20T05:24:36;26.70;47.70
16404;DHT22;8311;50.158;8.642;2022-08-20T05:27:30;26.70;47.60
16404;DHT22;8311;50.158;8.642;2022-08-20T05:30:24;26.70;48.40
16404;DHT22;8311;50.158;8.642;2022-08-20T05:33:21;26.70;47.80
16404;DHT22;8311;50.158;8.642;2022-08-20T05:36:14;26.70;47.70
16404;DHT22;8311;50.158;8.642;2022-08-20T05:39:08;26.70;47.80
16404;DHT22;8311;50.158;8.642;2022-08-20T05:42:02;26.70;47.90
16404;DHT22;8311;50.158;8.642;2022-08-20T05:44:55;26.70;47.90
16404;DHT22;8311;50.158;8.642;2022-08-20T05:47:48;26.70;47.90
16404;DHT22;8311;50.158;8.642;2022-08-20T05:50:49;26.70;47.90
16404;DHT22;8311;50.158;8.642;2022-08-20T05:53:45;26.70;47.90
16404;DHT22;8311;50.158;8.642;2022-08-20T05:56:38;26.70;48.10
16404;DHT22;8311;50.158;8.642;2022-08-20T05:59:32;26.70;48.20
16404;DHT22;8311;50.158;8.642;2022-08-20T06:02:27;26.70;48.20
16404;DHT22;8311;50.158;8.642;2022-08-20T06:05:38;26.70;48.20
16404;DHT22;8311;50.158;8.642;2022-08-20T06:08:32;26.70;48.20
16404;DHT22;8311;50.158;8.642;2022-08-20T06:11:25;26.70;48.20
16404;DHT22;8311;50.158;8.642;2022-08-20T06:14:19;26.70;48.30
16404;DHT22;8311;50.158;8.642;2022-08-20T06:17:15;26.70;48.30
16404;DHT22;8311;50.158;8.642;2022-08-20T06:20:13;26.70;48.30
16404;DHT22;8311;50.158;8.642;2022-08-20T06:23:07;26.70;48.40
16404;DHT22;8311;50.158;8.642;2022-08-20T06:26:02;26.70;48.40
16404;DHT22;8311;50.158;8.642;2022-08-20T06:29:00;26.70;48.40
16404;DHT22;8311;50.158;8.642;2022-08-20T06:31:55;26.70;48.30
16404;DHT22;8311;50.158;8.642;2022-08-20T06:34:48;26.70;48.80
16404;DHT22;8311;50.158;8.642;2022-08-20T06:37:42;26.70;48.80
16404;DHT22;8311;50.158;8.642;2022-08-20T06:40:35;26.70;48.80
16404;DHT22;8311;50.158;8.642;2022-08-20T06:43:30;26.70;48.80
16404;DHT22;8311;50.158;8.642;2022-08-20T06:46:23;26.70;48.80
16404;DHT22;8311;50.158;8.642;2022-08-20T06:49:16;26.70;48.80
16404;DHT22;8311;50.158;8.642;2022-08-20T06:52:09;26.70;48.80
16404;DHT22;8311;50.158;8.642;2022-08-20T06:55:02;26.70;49.00
16404;DHT22;8311;50.158;8.642;2022-08-20T06:57:56;26.70;49.00
16404;DHT22;8311;50.158;8.642;2022-08-20T07:00:51;26.70;49.00
16404;DHT22;8311;50.158;8.642;2022-08-20T07:03:46;26.70;49.00
16404;DHT22;8311;50.158;8.642;2022-08-20T07:06:47;26.70;49.00
16404;DHT22;8311;50.158;8.642;2022-08-20T07:09:42;26.70;49.00
16404;DHT22;8311;50.158;8.642;2022-08-20T07:12:35;26.70;49.00
16404;DHT22;8311;50.158;8.642;2022-08-20T07:15:29;26.70;49.00
16404;DHT22;8311;50.158;8.642;2022-08-20T07:18:24;26.70;49.10
16404;DHT22;8311;50.158;8.642;2022-08-20T07:21:20;26.70;49.50
16404;DHT22;8311;50.158;8.642;2022-08-20T07:24:14;26.70;51.20
16404;DHT22;8311;50.158;8.642;2022-08-20T07:27:07;26.70;49.80
16404;DHT22;8311;50.158;8.642;2022-08-20T07:30:00;26.70;51.40
16404;DHT22;8311;50.158;8.642;2022-08-20T07:33:11;26.70;52.20
16404;DHT22;8311;50.158;8.642;2022-08-20T07:36:08;26.70;52.50
16404;DHT22;8311;50.158;8.642;2022-08-20T07:39:02;26.70;52.30
16404;DHT22;8311;50.158;8.642;2022-08-20T07:41:57;26.70;53.00
16404;DHT22;8311;50.158;8.642;2022-08-20T07:44:55;26.70;51.90
16404;DHT22;8311;50.158;8.642;2022-08-20T07:47:48;26.70;52.00
16404;DHT22;8311;50.158;8.642;2022-08-20T07:50:44;26.70;52.40
16404;DHT22;8311;50.158;8.642;2022-08-20T07:53:40;26.70;52.30
16404;DHT22;8311;50.158;8.642;2022-08-20T07:56:34;26.70;51.80
16404;DHT22;8311;50.158;8.642;2022-08-20T07:59:28;26.80;51.90
16404;DHT22;8311;50.158;8.642;2022-08-20T08:02:21;26.80;51.30
16404;DHT22;8311;50.158;8.642;2022-08-20T08:05:14;26.80;51.40
16404;DHT22;8311;50.158;8.642;2022-08-20T08:08:12;26.90;51.20
16404;DHT22;8311;50.158;8.642;2022-08-20T08:11:07;26.90;51.10
16404;DHT22;8311;50.158;8.642;2022-08-20T08:14:03;26.90;51.00
16404;DHT22;8311;50.158;8.642;2022-08-20T08:17:00;26.90;50.70
16404;DHT22;8311;50.158;8.642;2022-08-20T08:19:55;26.90;50.60
16404;DHT22;8311;50.158;8.642;2022-08-20T08:22:48;26.90;50.40
16404;DHT22;8311;50.158;8.642;2022-08-20T08:25:42;26.90;50.10
16404;DHT22;8311;50.158;8.642;2022-08-20T08:28:38;26.90;50.00
16404;DHT22;8311;50.158;8.642;2022-08-20T08:31:32;27.00;50.60
16404;DHT22;8311;50.158;8.642;2022-08-20T08:34:26;26.90;49.60
16404;DHT22;8311;50.158;8.642;2022-08-20T08:37:21;26.90;49.80
16404;DHT22;8311;50.158;8.642;2022-08-20T08:40:14;26.90;49.90
16404;DHT22;8311;50.158;8.642;2022-08-20T08:43:11;26.90;50.00
16404;DHT22;8311;50.158;8.642;2022-08-20T08:46:16;26.90;49.80
16404;DHT22;8311;50.158;8.642;2022-08-20T08:49:15;26.90;50.60
16404;DHT22;8311;50.158;8.642;2022-08-20T08:52:13;26.90;49.60
16404;DHT22;8311;50.158;8.642;2022-08-20T08:55:11;26.90;49.90
16404;DHT22;8311;50.158;8.642;2022-08-20T08:58:07;26.90;49.90
16404;DHT22;8311;50.158;8.642;2022-08-20T09:01:09;26.90;49.80
16404;DHT22;8311;50.158;8.642;2022-08-20T09:04:30;26.90;49.80
16404;DHT22;8311;50.158;8.642;2022-08-20T09:07:29;26.90;49.80
16404;DHT22;8311;50.158;8.642;2022-08-20T09:10:23;26.90;49.80
16404;DHT22;8311;50.158;8.642;2022-08-20T09:13:16;26.90;50.10
16404;DHT22;8311;50.158;8.642;2022-08-20T09:16:11;26.80;49.80
16404;DHT22;8311;50.158;8.642;2022-08-20T09:19:04;26.80;50.00
16404;DHT22;8311;50.158;8.642;2022-08-20T09:21:58;26.80;49.30
16404;DHT22;8311;50.158;8.642;2022-08-20T09:24:58;26.80;49.40
16404;DHT22;8311;50.158;8.642;2022-08-20T09:27:54;26.80;49.40
16404;DHT22;8311;50.158;8.642;2022-08-20T09:30:48;26.80;49.40
16404;DHT22;8311;50.158;8.642;2022-08-20T09:33:42;26.90;49.60
16404;DHT22;8311;50.158;8.642;2022-08-20T09:36:36;26.90;49.40
16404;DHT22;8311;50.158;8.642;2022-08-20T09:39:30;27.00;49.40
16404;DHT22;8311;50.158;8.642;2022-08-20T09:42:26;26.90;49.30
16404;DHT22;8311;50.158;8.642;2022-08-20T09:45:19;27.00;49.80
16404;DHT22;8311;50.158;8.642;2022-08-20T09:48:13;27.00;49.60
16404;DHT22;8311;50.158;8.642;2022-08-20T09:51:07;27.00;49.50
16404;DHT22;8311;50.158;8.642;2022-08-20T09:54:01;27.10;49.40
16404;DHT22;8311;50.158;8.642;2022-08-20T09:56:56;27.10;49.30
16404;DHT22;8311;50.158;8.642;2022-08-20T09:59:52;27.10;49.20
16404;DHT22;8311;50.158;8.642;2022-08-20T10:02:47;27.20;49.10
16404;DHT22;8311;50.158;8.642;2022-08-20T10:05:40;27.30;49.00
16404;DHT22;8311;50.158;8.642;2022-08-20T10:08:33;27.30;49.10
16404;DHT22;8311;50.158;8.642;2022-08-20T10:11:27;27.40;48.80
16404;DHT22;8311;50.158;8.642;2022-08-20T10:14:22;27.40;48.60
16404;DHT22;8311;50.158;8.642;2022-08-20T10:17:16;27.40;48.70
16404;DHT22;8311;50.158;8.642;2022-08-20T10:20:11;27.50;48.70
16404;DHT22;8311;50.158;8.642;2022-08-20T10:23:05;27.60;48.80
16404;DHT22;8311;50.158;8.642;2022-08-20T10:25:58;27.60;48.60
16404;DHT22;8311;50.158;8.642;2022-08-20T10:28:51;27.70;48.80
16404;DHT22;8311;50.158;8.642;2022-08-20T10:31:46;27.60;48.80
16404;DHT22;8311;50.158;8.642;2022-08-20T10:34:40;27.60;48.80
16404;DHT22;8311;50.158;8.642;2022-08-20T10:37:33;27.60;48.80
16404;DHT22;8311;50.158;8.642;2022-08-20T10:40:27;27.50;49.10
16404;DHT22;8311;50.158;8.642;2022-08-20T10:43:20;27.50;48.80
16404;DHT22;8311;50.158;8.642;2022-08-20T10:46:13;27.50;48.90
16404;DHT22;8311;50.158;8.642;2022-08-20T10:49:09;27.40;48.60
16404;DHT22;8311;50.158;8.642;2022-08-20T10:52:04;27.40;49.10
16404;DHT22;8311;50.158;8.642;2022-08-20T10:54:57;27.50;49.10
16404;DHT22;8311;50.158;8.642;2022-08-20T10:57:50;27.40;48.80
16404;DHT22;8311;50.158;8.642;2022-08-20T11:00:43;27.40;47.60
16404;DHT22;8311;50.158;8.642;2022-08-20T11:03:38;27.40;47.60
16404;DHT22;8311;50.158;8.642;2022-08-20T11:06:32;27.40;47.70
16404;DHT22;8311;50.158;8.642;2022-08-20T11:09:28;27.40;47.80
16404;DHT22;8311;50.158;8.642;2022-08-20T11:12:22;27.40;47.70
16404;DHT22;8311;50.158;8.642;2022-08-20T11:15:15;27.50;47.50
16404;DHT22;8311;50.158;8.642;2022-08-20T11:18:09;27.60;47.30
16404;DHT22;8311;50.158;8.642;2022-08-20T11:21:03;27.60;47.10
16404;DHT22;8311;50.158;8.642;2022-08-20T11:24:01;27.60;47.00
16404;DHT22;8311;50.158;8.642;2022-08-20T11:26:54;27.60;47.20
16404;DHT22;8311;50.158;8.642;2022-08-20T11:29:47;27.60;47.20
16404;DHT22;8311;50.158;8.642;2022-08-20T11:32:41;27.60;47.00
16404;DHT22;8311;50.158;8.642;2022-08-20T11:35:35;27.70;47.10
16404;DHT22;8311;50.158;8.642;2022-08-20T11:38:39;27.60;47.00
16404;DHT22;8311;50.158;8.642;2022-08-20T11:41:34;27.60;46.40
16404;DHT22;8311;50.158;8.642;2022-08-20T11:44:27;27.60;46.70
16404;DHT22;8311;50.158;8.642;2022-08-20T11:47:22;27.60;46.90
16404;DHT22;8311;50.158;8.642;2022-08-20T11:50:18;27.60;46.90
16404;DHT22;8311;50.158;8.642;2022-08-20T11:53:13;27.60;47.00
16404;DHT22;8311;50.158;8.642;2022-08-20T11:56:06;27.50;46.70
16404;DHT22;8311;50.158;8.642;2022-08-20T11:59:06;27.50;46.90
16404;DHT22;8311;50.158;8.642;2022-08-20T12:01:59;27.60;46.70
16404;DHT22;8311;50.158;8.642;2022-08-20T12:04:54;27.60;46.40
16404;DHT22;8311;50.158;8.642;2022-08-20T12:07:47;27.50;46.50
16404;DHT22;8311;50.158;8.642;2022-08-20T12:10:40;27.50;46.70
16404;DHT22;8311;50.158;8.642;2022-08-20T12:13:35;27.50;46.80
16404;DHT22;8311;50.158;8.642;2022-08-20T12:16:40;27.60;46.70
16404;DHT22;8311;50.158;8.642;2022-08-20T12:19:36;27.60;46.50
16404;DHT22;8311;50.158;8.642;2022-08-20T12:22:30;27.60;46.20
16404;DHT22;8311;50.158;8.642;2022-08-20T12:25:23;27.60;46.30
16404;DHT22;8311;50.158;8.642;2022-08-20T12:28:16;27.60;46.40
16404;DHT22;8311;50.158;8.642;2022-08-20T12:31:16;27.60;46.20
16404;DHT22;8311;50.158;8.642;2022-08-20T12:34:12;27.60;45.80
16404;DHT22;8311;50.158;8.642;2022-08-20T12:37:10;27.60;45.60
16404;DHT22;8311;50.158;8.642;2022-08-20T12:40:10;27.60;45.40
16404;DHT22;8311;50.158;8.642;2022-08-20T12:43:04;27.60;45.20
16404;DHT22;8311;50.158;8.642;2022-08-20T12:45:57;27.60;44.30
16404;DHT22;8311;50.158;8.642;2022-08-20T12:48:50;27.70;45.00
16404;DHT22;8311;50.158;8.642;2022-08-20T12:51:46;27.70;44.80
16404;DHT22;8311;50.158;8.642;2022-08-20T12:54:40;27.70;44.80
16404;DHT22;8311;50.158;8.642;2022-08-20T12:57:36;27.70;44.70
16404;DHT22;8311;50.158;8.642;2022-08-20T13:00:31;27.70;44.50
16404;DHT22;8311;50.158;8.642;2022-08-20T13:03:25;27.70;44.20
16404;DHT22;8311;50.158;8.642;2022-08-20T13:06:22;27.70;44.20
16404;DHT22;8311;50.158;8.642;2022-08-20T13:09:17;27.60;43.70
16404;DHT22;8311;50.158;8.642;2022-08-20T13:12:10;27.60;44.20
16404;DHT22;8311;50.158;8.642;2022-08-20T13:15:05;27.60;44.30
16404;DHT22;8311;50.158;8.642;2022-08-20T13:18:00;27.50;44.60
16404;DHT22;8311;50.158;8.642;2022-08-20T13:20:53;27.60;44.40
16404;DHT22;8311;50.158;8.642;2022-08-20T13:23:47;27.60;44.10
16404;DHT22;8311;50.158;8.642;2022-08-20T13:26:42;27.60;44.00
16404;DHT22;8311;50.158;8.642;2022-08-20T13:29:36;27.50;43.70
16404;DHT22;8311;50.158;8.642;2022-08-20T13:32:29;27.60;43.90
16404;DHT22;8311;50.158;8.642;2022-08-20T13:35:23;27.50;44.10
16404;DHT22;8311;50.158;8.642;2022-08-20T13:38:16;27.50;44.20
16404;DHT22;8311;50.158;8.642;2022-08-20T13:41:10;27.50;44.40
16404;DHT22;8311;50.158;8.642;2022-08-20T13:44:05;27.50;43.50
16404;DHT22;8311;50.158;8.642;2022-08-20T13:46:58;27.50;43.60
16404;DHT22;8311;50.158;8.642;2022-08-20T13:49:54;27.50;43.50
16404;DHT22;8311;50.158;8.642;2022-08-20T13:52:48;27.50;43.30
16404;DHT22;8311;50.158;8.642;2022-08-20T13:55:43;27.50;43.30
16404;DHT22;8311;50.158;8.642;2022-08-20T13:58:36;27.50;43.10
16404;DHT22;8311;50.158;8.642;2022-08-20T14:01:30;27.50;43.00
16404;DHT22;8311;50.158;8.642;2022-08-20T14:04:24;27.50;42.80
16404;DHT22;8311;50.158;8.642;2022-08-20T14:07:18;27.50;42.80
16404;DHT22;8311;50.158;8.642;2022-08-20T14:10:15;27.50;42.70
16404;DHT22;8311;50.158;8.642;2022-08-20T14:13:09;27.50;42.60
16404;DHT22;8311;50.158;8.642;2022-08-20T14:16:06;27.50;42.70
16404;DHT22;8311;50.158;8.642;2022-08-20T14:19:20;27.40;42.60
16404;DHT22;8311;50.158;8.642;2022-08-20T14:22:13;27.40;42.50
16404;DHT22;8311;50.158;8.642;2022-08-20T14:25:10;27.40;42.50
16404;DHT22;8311;50.158;8.642;2022-08-20T14:28:11;27.40;42.90
16404;DHT22;8311;50.158;8.642;2022-08-20T14:31:08;27.40;43.00
16404;DHT22;8311;50.158;8.642;2022-08-20T14:34:01;27.40;42.90
16404;DHT22;8311;50.158;8.642;2022-08-20T14:36:56;27.40;42.50
16404;DHT22;8311;50.158;8.642;2022-08-20T14:39:56;27.40;42.40
16404;DHT22;8311;50.158;8.642;2022-08-20T14:42:50;27.40;42.10
16404;DHT22;8311;50.158;8.642;2022-08-20T14:45:43;27.40;42.40
16404;DHT22;8311;50.158;8.642;2022-08-20T14:48:36;27.40;42.60
16404;DHT22;8311;50.158;8.642;2022-08-20T14:51:29;27.40;42.10
16404;DHT22;8311;50.158;8.642;2022-08-20T14:54:25;27.40;42.10
16404;DHT22;8311;50.158;8.642;2022-08-20T14:57:19;27.40;42.30
16404;DHT22;8311;50.158;8.642;2022-08-20T15:00:14;27.40;42.50
16404;DHT22;8311;50.158;8.642;2022-08-20T15:03:08;27.40;42.20
16404;DHT22;8311;50.158;8.642;2022-08-20T15:06:01;27.40;42.40
16404;DHT22;8311;50.158;8.642;2022-08-20T15:08:56;27.40;42.30
16404;DHT22;8311;50.158;8.642;2022-08-20T15:11:51;27.40;42.40
16404;DHT22;8311;50.158;8.642;2022-08-20T15:14:44;27.30;42.30
16404;DHT22;8311;50.158;8.642;2022-08-20T15:17:43;27.30;42.70
16404;DHT22;8311;50.158;8.642;2022-08-20T15:20:37;27.30;42.40
16404;DHT22;8311;50.158;8.642;2022-08-20T15:23:30;27.30;42.40
16404;DHT22;8311;50.158;8.642;2022-08-20T15:26:22;27.30;42.40
16404;DHT22;8311;50.158;8.642;2022-08-20T15:29:17;27.30;42.70
16404;DHT22;8311;50.158;8.642;2022-08-20T15:32:15;27.30;42.90
16404;DHT22;8311;50.158;8.642;2022-08-20T15:35:08;27.30;42.70
16404;DHT22;8311;50.158;8.642;2022-08-20T15:38:03;27.30;42.40
16404;DHT22;8311;50.158;8.642;2022-08-20T15:40:56;27.30;42.80
16404;DHT22;8311;50.158;8.642;2022-08-20T15:43:51;27.30;42.70
16404;DHT22;8311;50.158;8.642;2022-08-20T15:46:46;27.30;42.60
16404;DHT22;8311;50.158;8.642;2022-08-20T15:49:40;27.30;42.90
16404;DHT22;8311;50.158;8.642;2022-08-20T15:52:37;27.30;43.10
16404;DHT22;8311;50.158;8.642;2022-08-20T15:55:35;27.30;42.60
16404;DHT22;8311;50.158;8.642;2022-08-20T15:58:35;27.30;42.50
16404;DHT22;8311;50.158;8.642;2022-08-20T16:01:36;27.20;42.10
16404;DHT22;8311;50.158;8.642;2022-08-20T16:08:08;27.20;42.70
16404;DHT22;8311;50.158;8.642;2022-08-20T16:11:11;27.20;42.40
16404;DHT22;8311;50.158;8.642;2022-08-20T16:14:13;27.20;42.70
16404;DHT22;8311;50.158;8.642;2022-08-20T16:17:10;27.20;43.00
16404;DHT22;8311;50.158;8.642;2022-08-20T16:20:10;27.20;42.90
16404;DHT22;8311;50.158;8.642;2022-08-20T16:23:05;27.20;43.10
16404;DHT22;8311;50.158;8.642;2022-08-20T16:26:08;27.20;43.00
16404;DHT22;8311;50.158;8.642;2022-08-20T16:29:07;27.20;43.00
16404;DHT22;8311;50.158;8.642;2022-08-20T16:32:06;27.20;43.60
16404;DHT22;8311;50.158;8.642;2022-08-20T16:35:12;27.20;43.20
16404;DHT22;8311;50.158;8.642;2022-08-20T16:38:15;27.20;43.30
16404;DHT22;8311;50.158;8.642;2022-08-20T16:41:13;27.10;43.40
16404;DHT22;8311;50.158;8.642;2022-08-20T16:44:12;27.20;43.50
16404;DHT22;8311;50.158;8.642;2022-08-20T16:47:14;27.20;43.70
16404;DHT22;8311;50.158;8.642;2022-08-20T16:50:14;27.10;43.50
16404;DHT22;8311;50.158;8.642;2022-08-20T16:53:15;27.20;43.80
16404;DHT22;8311;50.158;8.642;2022-08-20T16:56:08;27.10;43.70
16404;DHT22;8311;50.158;8.642;2022-08-20T16:59:04;27.20;43.80
16404;DHT22;8311;50.158;8.642;2022-08-20T17:02:04;27.10;43.70
16404;DHT22;8311;50.158;8.642;2022-08-20T17:05:02;27.20;43.90
16404;DHT22;8311;50.158;8.642;2022-08-20T17:08:01;27.10;44.40
16404;DHT22;8311;50.158;8.642;2022-08-20T17:10:58;27.10;43.80
16404;DHT22;8311;50.158;8.642;2022-08-20T17:14:03;27.10;43.80
16404;DHT22;8311;50.158;8.642;2022-08-20T17:16:57;27.10;43.80
16404;DHT22;8311;50.158;8.642;2022-08-20T17:19:53;27.10;43.70
16404;DHT22;8311;50.158;8.642;2022-08-20T17:22:52;27.10;43.80
16404;DHT22;8311;50.158;8.642;2022-08-20T17:25:57;27.10;43.90
16404;DHT22;8311;50.158;8.642;2022-08-20T17:28:52;27.10;43.80
16404;DHT22;8311;50.158;8.642;2022-08-20T17:31:47;27.10;43.80
16404;DHT22;8311;50.158;8.642;2022-08-20T17:34:44;27.10;43.80
16404;DHT22;8311;50.158;8.642;2022-08-20T17:37:38;27.10;43.80
16404;DHT22;8311;50.158;8.642;2022-08-20T17:40:41;27.10;43.90
16404;DHT22;8311;50.158;8.642;2022-08-20T17:43:38;27.10;43.90
16404;DHT22;8311;50.158;8.642;2022-08-20T17:46:40;27.10;44.00
16404;DHT22;8311;50.158;8.642;2022-08-20T17:49:39;27.10;44.10
16404;DHT22;8311;50.158;8.642;2022-08-20T17:52:46;27.10;44.10
16404;DHT22;8311;50.158;8.642;2022-08-20T17:55:41;27.10;44.10
16404;DHT22;8311;50.158;8.642;2022-08-20T17:58:42;27.10;44.20
16404;DHT22;8311;50.158;8.642;2022-08-20T18:01:47;27.10;44.10
16404;DHT22;8311;50.158;8.642;2022-08-20T18:04:41;27.10;44.00
16404;DHT22;8311;50.158;8.642;2022-08-20T18:07:40;27.10;44.10
16404;DHT22;8311;50.158;8.642;2022-08-20T18:10:41;27.10;44.10
16404;DHT22;8311;50.158;8.642;2022-08-20T18:13:51;27.10;44.00
16404;DHT22;8311;50.158;8.642;2022-08-20T18:16:58;27.10;44.10
16404;DHT22;8311;50.158;8.642;2022-08-20T18:20:23;27.10;44.00
16404;DHT22;8311;50.158;8.642;2022-08-20T18:23:19;27.10;44.00
16404;DHT22;8311;50.158;8.642;2022-08-20T18:26:16;27.10;44.00
16404;DHT22;8311;50.158;8.642;2022-08-20T18:29:15;27.10;44.00
16404;DHT22;8311;50.158;8.642;2022-08-20T18:32:23;27.10;44.10
16404;DHT22;8311;50.158;8.642;2022-08-20T18:35:20;27.10;44.00
16404;DHT22;8311;50.158;8.642;2022-08-20T18:38:26;27.10;44.00
16404;DHT22;8311;50.158;8.642;2022-08-20T18:41:27;27.10;44.10
16404;DHT22;8311;50.158;8.642;2022-08-20T18:44:37;27.10;44.10
16404;DHT22;8311;50.158;8.642;2022-08-20T18:47:40;27.10;44.10
16404;DHT22;8311;50.158;8.642;2022-08-20T18:50:43;27.10;44.10
16404;DHT22;8311;50.158;8.642;2022-08-20T18:53:46;27.10;44.10